createdAt,value
2018-10-03T00:02:14.309Z,99780.31
2018-10-03T00:04:41.881Z,99783.38
2018-10-03T00:07:09.417Z,99774.22
2018-10-03T00:09:36.969Z,99778.09
2018-10-03T00:12:04.479Z,99785.05
2018-10-03T00:14:32.100Z,99792.05
2018-10-03T00:16:59.626Z,99791.52
2018-10-03T00:19:27.207Z,99785.94
2018-10-03T00:21:54.747Z,99794.07
2018-10-03T00:24:22.301Z,99786.95
2018-10-03T00:26:49.862Z,99794.70
2018-10-03T00:29:17.389Z,99810.57
2018-10-03T00:31:44.943Z,99806.09
2018-10-03T00:34:12.472Z,99807.92
2018-10-03T00:36:40.011Z,99816.09
2018-10-03T00:39:07.837Z,99823.23
2018-10-03T00:41:35.407Z,99826.22
2018-10-03T00:44:02.957Z,99841.64
2018-10-03T00:46:30.529Z,99842.69
2018-10-03T00:48:58.077Z,99840.81
2018-10-03T00:51:25.858Z,99831.75
2018-10-03T00:53:53.434Z,99831.55
2018-10-03T00:56:20.969Z,99832.55
2018-10-03T00:58:48.634Z,99839.45
2018-10-03T01:01:16.144Z,99827.98
2018-10-03T01:03:43.661Z,99825.46
2018-10-03T01:06:11.268Z,99836.59
2018-10-03T01:08:38.795Z,99833.05
2018-10-03T01:11:06.385Z,99830.63
2018-10-03T01:13:33.922Z,99837.70
2018-10-03T01:16:01.696Z,99832.41
2018-10-03T01:18:29.273Z,99837.97
2018-10-03T01:20:56.830Z,99836.84
2018-10-03T01:23:24.356Z,99843.58
2018-10-03T01:25:51.920Z,99838.70
2018-10-03T01:28:19.472Z,99846.01
2018-10-03T01:30:47.040Z,99835.36
2018-10-03T01:33:14.584Z,99836.67
2018-10-03T01:35:42.283Z,99830.45
2018-10-03T01:38:09.872Z,99831.83
2018-10-03T01:40:37.387Z,99828.75
2018-10-03T01:43:04.923Z,99837.42
2018-10-03T01:45:32.434Z,99844.28
2018-10-03T01:47:59.996Z,99840.41
2018-10-03T01:50:27.565Z,99843.00
2018-10-03T01:52:55.120Z,99846.89
2018-10-03T01:55:22.655Z,99846.05
2018-10-03T01:57:50.297Z,99842.72
2018-10-03T02:00:17.981Z,99840.19
2018-10-03T02:02:45.584Z,99841.79
2018-10-03T02:05:13.286Z,99851.61
2018-10-03T02:07:40.969Z,99848.95
2018-10-03T02:10:09.096Z,99855.19
2018-10-03T02:12:37.163Z,99860.97
2018-10-03T02:15:05.881Z,99869.38
2018-10-03T02:17:33.882Z,99867.55
2018-10-03T02:20:01.906Z,99866.30
2018-10-03T02:22:29.814Z,99864.16
2018-10-03T02:24:57.747Z,99865.51
2018-10-03T02:27:25.396Z,99866.41
2018-10-03T02:29:53.439Z,99861.61
2018-10-03T02:32:21.611Z,99866.46
2018-10-03T02:34:49.623Z,99862.69
2018-10-03T02:37:17.707Z,99861.30
2018-10-03T02:39:45.662Z,99863.70
2018-10-03T02:42:13.527Z,99867.98
2018-10-03T02:44:41.105Z,99865.41
2018-10-03T02:47:08.685Z,99875.01
2018-10-03T02:49:36.192Z,99893.00
2018-10-03T02:52:03.776Z,99881.60
2018-10-03T02:54:31.301Z,99880.34
2018-10-03T02:56:58.859Z,99883.34
2018-10-03T02:59:26.378Z,99894.30
2018-10-03T03:01:54.023Z,99891.52
2018-10-03T03:04:21.547Z,99884.23
2018-10-03T03:06:49.071Z,99890.84
2018-10-03T03:09:16.914Z,99889.34
2018-10-03T03:11:44.501Z,99896.86
2018-10-03T03:14:12.052Z,99901.23
2018-10-03T03:16:39.594Z,99897.58
2018-10-03T03:19:07.204Z,99892.27
2018-10-03T03:21:34.721Z,99888.06
2018-10-03T03:24:02.391Z,99895.65
2018-10-03T03:26:29.921Z,99895.27
2018-10-03T03:28:57.480Z,99893.03
2018-10-03T03:31:25.064Z,99894.56
2018-10-03T03:33:52.593Z,99897.88
2018-10-03T03:36:21.072Z,99900.34
2018-10-03T03:38:48.586Z,99904.70
2018-10-03T03:41:16.150Z,99902.72
2018-10-03T03:43:43.680Z,99905.02
2018-10-03T03:46:11.254Z,99902.16
2018-10-03T03:48:38.769Z,99905.20
2018-10-03T03:51:06.368Z,99920.41
2018-10-03T03:53:33.887Z,99928.22
2018-10-03T03:56:01.466Z,99924.52
2018-10-03T03:58:28.999Z,99925.89
2018-10-03T04:00:56.587Z,99925.37
2018-10-03T04:03:24.112Z,99936.61
2018-10-03T04:05:51.738Z,99933.37
2018-10-03T04:08:19.304Z,99933.41
2018-10-03T04:10:46.845Z,99932.16
2018-10-03T04:13:14.435Z,99929.70
2018-10-03T04:15:41.946Z,99925.55
2018-10-03T04:18:09.480Z,99918.71
2018-10-03T04:20:37.030Z,99928.51
2018-10-03T04:23:04.579Z,99927.52
2018-10-03T04:25:32.110Z,99935.53
2018-10-03T04:27:59.685Z,99937.01
2018-10-03T04:30:27.251Z,99943.31
2018-10-03T04:32:54.779Z,99945.28
2018-10-03T04:35:22.401Z,99943.50
2018-10-03T04:37:49.965Z,99948.32
2018-10-03T04:40:17.534Z,99949.69
2018-10-03T04:42:45.148Z,99960.39
2018-10-03T04:45:12.651Z,99955.77
2018-10-03T04:47:40.235Z,99956.92
2018-10-03T04:50:07.756Z,99958.62
2018-10-03T04:52:35.359Z,99965.32
2018-10-03T04:55:02.880Z,99968.34
2018-10-03T04:57:30.461Z,99970.70
2018-10-03T04:59:58.015Z,99968.99
2018-10-03T05:02:25.589Z,99974.00
2018-10-03T05:04:53.172Z,99976.16
2018-10-03T05:07:20.749Z,99972.92
2018-10-03T05:09:48.327Z,99982.36
2018-10-03T05:12:15.909Z,99981.82
2018-10-03T05:14:43.470Z,99986.97
2018-10-03T05:17:11.025Z,99987.28
2018-10-03T05:19:38.597Z,99996.36
2018-10-03T05:22:06.339Z,99997.69
2018-10-03T05:24:33.859Z,100005.80
2018-10-03T05:27:01.440Z,100010.30
2018-10-03T05:29:29.062Z,100016.41
2018-10-03T05:31:56.676Z,100015.34
2018-10-03T05:34:24.293Z,100021.38
2018-10-03T05:36:51.893Z,100019.27
2018-10-03T05:39:19.479Z,100019.45
2018-10-03T05:41:47.057Z,100021.45
2018-10-03T05:44:14.715Z,100023.33
2018-10-03T05:46:42.328Z,100042.80
2018-10-03T05:49:09.891Z,100037.14
2018-10-03T05:51:37.467Z,100042.31
2018-10-03T05:54:05.078Z,100041.78
2018-10-03T05:56:32.682Z,100050.06
2018-10-03T05:59:00.351Z,100041.30
2018-10-03T06:01:27.912Z,100053.72
2018-10-03T06:03:55.494Z,100055.59
2018-10-03T06:06:23.953Z,100059.75
2018-10-03T06:08:51.526Z,100078.16
2018-10-03T06:11:19.082Z,100082.73
2018-10-03T06:13:46.659Z,100082.64
2018-10-03T06:16:14.241Z,100080.25
2018-10-03T06:18:41.839Z,100083.91
2018-10-03T06:21:09.426Z,100076.55
2018-10-03T06:23:37.019Z,100093.00
2018-10-03T06:26:04.579Z,100086.79
2018-10-03T06:28:32.109Z,100093.25
2018-10-03T06:30:59.651Z,100102.19
2018-10-03T06:33:27.304Z,100107.07
2018-10-03T06:35:54.835Z,100101.19
2018-10-03T06:38:22.397Z,100098.66
2018-10-03T06:40:49.926Z,100103.28
2018-10-03T06:43:17.478Z,100112.90
2018-10-03T06:45:45.078Z,100121.48
2018-10-03T06:48:12.635Z,100120.75
2018-10-03T06:50:40.160Z,100130.28
2018-10-03T06:53:07.675Z,100131.55
2018-10-03T06:55:35.254Z,100128.98
2018-10-03T06:58:02.825Z,100133.27
2018-10-03T07:00:30.379Z,100142.94
2018-10-03T07:02:57.931Z,100151.33
2018-10-03T07:05:25.495Z,100152.31
2018-10-03T07:07:53.066Z,100165.52
2018-10-03T07:10:20.770Z,100176.22
2018-10-03T07:12:48.342Z,100188.27
2018-10-03T07:15:15.908Z,100183.52
2018-10-03T07:17:43.436Z,100186.91
2018-10-03T07:20:11.149Z,100191.36
2018-10-03T07:22:38.701Z,100192.27
2018-10-03T07:25:06.273Z,100200.03
2018-10-03T07:27:33.844Z,100205.06
2018-10-03T07:30:01.386Z,100211.81
2018-10-03T07:32:29.045Z,100214.89
2018-10-03T07:34:56.750Z,100217.66
2018-10-03T07:37:24.282Z,100215.81
2018-10-03T07:39:52.045Z,100218.97
2018-10-03T07:42:19.580Z,100227.60
2018-10-03T07:44:47.126Z,100231.02
2018-10-03T07:47:14.672Z,100235.54
2018-10-03T07:49:42.234Z,100239.78
2018-10-03T07:52:09.879Z,100239.59
2018-10-03T07:54:37.550Z,100237.92
2018-10-03T07:57:05.166Z,100235.69
2018-10-03T07:59:32.744Z,100240.68
2018-10-03T08:02:00.301Z,100252.25
2018-10-03T08:04:28.156Z,100254.88
2018-10-03T08:06:55.943Z,100260.69
2018-10-03T08:09:23.521Z,100260.95
2018-10-03T08:11:51.083Z,100272.09
2018-10-03T08:14:18.621Z,100276.00
2018-10-03T08:16:46.242Z,100274.69
2018-10-03T08:19:13.797Z,100276.72
2018-10-03T08:21:41.593Z,100277.14
2018-10-03T08:24:09.330Z,100273.80
2018-10-03T08:26:36.900Z,100280.23
2018-10-03T08:29:04.541Z,100274.83
2018-10-03T08:31:32.113Z,100287.18
2018-10-03T08:33:59.658Z,100282.06
2018-10-03T08:36:27.223Z,100288.13
2018-10-03T08:38:54.774Z,100293.77
2018-10-03T08:41:22.367Z,100299.63
2018-10-03T08:43:49.913Z,100298.67
2018-10-03T08:46:17.490Z,100304.34
2018-10-03T08:48:45.071Z,100312.46
2018-10-03T08:51:12.645Z,100315.53
2018-10-03T08:53:40.173Z,100317.39
2018-10-03T08:56:07.750Z,100321.94
2018-10-03T08:58:35.465Z,100324.87
2018-10-03T09:01:02.857Z,100326.12
2018-10-03T09:03:30.436Z,100326.14
2018-10-03T09:05:58.115Z,100327.98
2018-10-03T09:08:25.874Z,100325.55
2018-10-03T09:10:53.461Z,100329.69
2018-10-03T09:13:20.970Z,100341.61
2018-10-03T09:15:48.523Z,100339.77
2018-10-03T09:18:16.118Z,100336.86
2018-10-03T09:20:43.657Z,100346.52
2018-10-03T09:23:11.238Z,100341.48
2018-10-03T09:25:38.769Z,100338.58
2018-10-03T09:28:06.337Z,100345.59
2018-10-03T09:30:33.921Z,100350.69
2018-10-03T09:33:01.457Z,100343.98
2018-10-03T09:35:28.980Z,100356.61
2018-10-03T09:37:56.553Z,100366.83
2018-10-03T09:40:24.104Z,100353.27
2018-10-03T09:42:51.680Z,100359.17
2018-10-03T09:45:19.224Z,100362.95
2018-10-03T09:47:46.930Z,100367.55
2018-10-03T09:50:14.474Z,100374.06
2018-10-03T09:52:42.003Z,100367.92
2018-10-03T09:55:09.639Z,100373.73
2018-10-03T09:57:37.149Z,100380.91
2018-10-03T10:00:04.724Z,100386.67
2018-10-03T10:02:32.261Z,100392.70
2018-10-03T10:04:59.835Z,100387.77
2018-10-03T10:07:27.364Z,100393.91
2018-10-03T10:09:54.944Z,100390.58
2018-10-03T10:12:22.543Z,100385.41
2018-10-03T10:14:50.215Z,100389.37
2018-10-03T10:17:17.773Z,100387.28
2018-10-03T10:19:45.314Z,100387.19
2018-10-03T10:22:12.943Z,100399.94
2018-10-03T10:24:40.485Z,100386.97
2018-10-03T10:27:08.077Z,100384.44
2018-10-03T10:29:35.593Z,100381.77
2018-10-03T10:32:03.402Z,100384.33
2018-10-03T10:34:30.946Z,100393.22
2018-10-03T10:36:58.477Z,100397.05
2018-10-03T10:39:26.048Z,100393.03
2018-10-03T10:41:53.774Z,100402.49
2018-10-03T10:44:21.362Z,100400.47
2018-10-03T10:46:49.019Z,100398.00
2018-10-03T10:49:16.513Z,100412.51
2018-10-03T10:51:44.089Z,100407.34
2018-10-03T10:54:11.723Z,100412.06
2018-10-03T10:56:39.258Z,100422.91
2018-10-03T10:59:06.844Z,100426.92
2018-10-03T11:01:34.440Z,100420.20
2018-10-03T11:04:02.132Z,100422.40
2018-10-03T11:06:29.723Z,100419.48
2018-10-03T11:08:57.257Z,100426.09
2018-10-03T11:11:24.833Z,100421.28
2018-10-03T11:13:52.483Z,100426.63
2018-10-03T11:16:21.065Z,100427.97
2018-10-03T11:18:48.663Z,100428.14
2018-10-03T11:21:16.195Z,100436.34
2018-10-03T11:23:44.029Z,100430.16
2018-10-03T11:26:11.385Z,100428.56
2018-10-03T11:28:38.978Z,100431.91
2018-10-03T11:31:06.585Z,100431.69
2018-10-03T11:33:34.165Z,100433.02
2018-10-03T11:36:01.718Z,100443.89
2018-10-03T11:38:29.259Z,100445.91
2018-10-03T11:40:56.803Z,100447.73
2018-10-03T11:43:24.395Z,100447.77
2018-10-03T11:45:51.973Z,100436.42
2018-10-03T11:48:19.527Z,100438.16
2018-10-03T11:50:47.114Z,100436.71
2018-10-03T11:53:14.746Z,100433.61
2018-10-03T11:55:42.340Z,100438.83
2018-10-03T11:58:09.877Z,100443.78
2018-10-03T12:00:37.482Z,100435.62
2018-10-03T12:03:05.224Z,100443.33
2018-10-03T12:05:32.677Z,100424.59
2018-10-03T12:08:00.219Z,100431.02
2018-10-03T12:10:27.786Z,100424.12
2018-10-03T12:12:55.310Z,100418.53
2018-10-03T12:15:22.877Z,100414.64
2018-10-03T12:17:50.430Z,100426.14
2018-10-03T12:20:18.022Z,100418.98
2018-10-03T12:22:45.615Z,100419.42
2018-10-03T12:25:13.176Z,100422.47
2018-10-03T12:27:40.714Z,100426.14
2018-10-03T12:30:08.299Z,100429.55
2018-10-03T12:32:35.933Z,100424.23
2018-10-03T12:35:03.504Z,100434.13
2018-10-03T12:37:31.108Z,100442.27
2018-10-03T12:39:58.931Z,100443.87
2018-10-03T12:42:26.509Z,100431.23
2018-10-03T12:44:54.151Z,100434.92
2018-10-03T12:47:21.697Z,100432.66
2018-10-03T12:49:49.393Z,100426.42
2018-10-03T12:52:16.907Z,100418.89
2018-10-03T12:54:44.606Z,100420.80
2018-10-03T12:57:12.084Z,100422.41
2018-10-03T12:59:39.674Z,100418.72
2018-10-03T13:02:07.244Z,100419.32
2018-10-03T13:04:34.831Z,100431.19
2018-10-03T13:07:02.378Z,100435.80
2018-10-03T13:09:29.948Z,100431.70
2018-10-03T13:11:57.485Z,100428.27
2018-10-03T13:14:25.193Z,100429.92
2018-10-03T13:16:52.741Z,100431.62
2018-10-03T13:19:20.299Z,100427.44
2018-10-03T13:21:48.074Z,100426.57
2018-10-03T13:24:16.112Z,100428.59
2018-10-03T13:26:43.749Z,100432.89
2018-10-03T13:29:11.629Z,100430.25
2018-10-03T13:31:39.250Z,100433.70
2018-10-03T13:34:06.820Z,100435.41
2018-10-03T13:36:34.397Z,100436.16
2018-10-03T13:39:01.926Z,100446.20
2018-10-03T13:41:29.530Z,100433.95
2018-10-03T13:43:57.277Z,100429.17
2018-10-03T13:46:24.925Z,100429.23
2018-10-03T13:48:52.541Z,100434.00
2018-10-03T13:51:20.106Z,100440.72
2018-10-03T13:53:47.637Z,100433.17
2018-10-03T13:56:15.188Z,100425.48
2018-10-03T13:58:42.791Z,100429.23
2018-10-03T14:01:10.338Z,100413.20
2018-10-03T14:03:37.917Z,100421.28
2018-10-03T14:06:05.498Z,100421.52
2018-10-03T14:08:33.301Z,100419.12
2018-10-03T14:11:00.903Z,100425.15
2018-10-03T14:13:28.455Z,100424.70
2018-10-03T14:15:55.993Z,100424.27
2018-10-03T14:18:23.679Z,100432.91
2018-10-03T14:20:51.408Z,100427.27
2018-10-03T14:23:18.972Z,100429.33
2018-10-03T14:25:46.675Z,100430.46
2018-10-03T14:28:14.263Z,100432.91
2018-10-03T14:30:42.046Z,100435.66
2018-10-03T14:33:09.744Z,100439.69
2018-10-03T14:35:37.398Z,100445.60
2018-10-03T14:38:05.090Z,100437.62
2018-10-03T14:40:32.655Z,100441.27
2018-10-03T14:43:00.211Z,100426.07
2018-10-03T14:45:27.940Z,100428.39
2018-10-03T14:47:55.494Z,100432.27
2018-10-03T14:50:23.027Z,100426.80
2018-10-03T14:52:50.611Z,100433.95
2018-10-03T14:55:18.341Z,100434.86
2018-10-03T14:57:45.908Z,100428.73
2018-10-03T15:00:13.519Z,100426.33
2018-10-03T15:02:41.081Z,100428.28
2018-10-03T15:05:08.784Z,100427.59
2018-10-03T15:07:36.371Z,100424.70
2018-10-03T15:10:03.932Z,100427.05
2018-10-03T15:12:31.557Z,100427.84
2018-10-03T15:14:59.124Z,100432.48
2018-10-03T15:17:26.798Z,100431.86
2018-10-03T15:19:54.319Z,100433.87
2018-10-03T15:22:21.981Z,100432.41
2018-10-03T15:24:49.529Z,100426.38
2018-10-03T15:27:17.047Z,100440.14
2018-10-03T15:29:44.787Z,100436.34
2018-10-03T15:32:12.378Z,100435.67
2018-10-03T15:34:39.904Z,100439.17
2018-10-03T15:37:07.489Z,100436.28
2018-10-03T15:39:35.088Z,100431.80
2018-10-03T15:42:02.662Z,100434.75
2018-10-03T15:44:30.175Z,100435.34
2018-10-03T15:46:57.766Z,100438.41
2018-10-03T15:49:25.601Z,100430.39
2018-10-03T15:51:53.483Z,100436.64
2018-10-03T15:54:21.132Z,100434.69
2018-10-03T15:56:48.694Z,100439.44
2018-10-03T15:59:16.280Z,100445.77
2018-10-03T16:01:43.857Z,100436.38
2018-10-03T16:04:11.475Z,100443.01
2018-10-03T16:06:39.448Z,100442.20
2018-10-03T16:09:07.170Z,100441.75
2018-10-03T16:11:34.880Z,100439.98
2018-10-03T16:14:02.569Z,100443.47
2018-10-03T16:16:30.213Z,100439.05
2018-10-03T16:18:57.849Z,100445.17
2018-10-03T16:21:25.562Z,100442.93
2018-10-03T16:23:53.134Z,100440.58
2018-10-03T16:26:21.531Z,100445.69
2018-10-03T16:28:49.200Z,100441.73
2018-10-03T16:31:17.111Z,100447.05
2018-10-03T16:33:44.885Z,100446.23
2018-10-03T16:36:12.666Z,100453.40
2018-10-03T16:38:40.375Z,100455.95
2018-10-03T16:41:08.331Z,100455.69
2018-10-03T16:43:36.212Z,100462.62
2018-10-03T16:46:04.023Z,100461.45
2018-10-03T16:48:31.765Z,100464.98
2018-10-03T16:50:59.518Z,100465.27
2018-10-03T16:53:27.329Z,100469.89
2018-10-03T16:55:54.942Z,100477.65
2018-10-03T16:58:22.607Z,100482.49
2018-10-03T17:00:50.316Z,100491.94
2018-10-03T17:03:18.170Z,100488.01
2018-10-03T17:05:45.831Z,100486.22
2018-10-03T17:08:13.435Z,100499.59
2018-10-03T17:10:41.185Z,100504.79
2018-10-03T17:13:08.743Z,100504.08
2018-10-03T17:15:36.315Z,100505.20
2018-10-03T17:18:03.834Z,100506.62
2018-10-03T17:20:31.416Z,100505.78
2018-10-03T17:22:58.953Z,100511.37
2018-10-03T17:25:26.607Z,100509.70
2018-10-03T17:27:54.142Z,100512.42
2018-10-03T17:30:21.713Z,100515.14
2018-10-03T17:32:49.277Z,100512.65
2018-10-03T17:35:17.074Z,100523.86
2018-10-03T17:37:44.776Z,100521.45
2018-10-03T17:40:12.287Z,100522.56
2018-10-03T17:42:40.053Z,100528.48
2018-10-03T17:45:07.596Z,100522.44
2018-10-03T17:47:35.129Z,100533.84
2018-10-03T17:50:02.710Z,100531.75
2018-10-03T17:52:30.502Z,100534.58
2018-10-03T17:54:58.045Z,100534.55
2018-10-03T17:57:25.727Z,100533.76
2018-10-03T17:59:53.618Z,100534.52
2018-10-03T18:02:21.244Z,100540.42
2018-10-03T18:04:49.121Z,100540.67
2018-10-03T18:07:16.705Z,100547.28
2018-10-03T18:09:44.273Z,100546.98
2018-10-03T18:12:12.015Z,100548.73
2018-10-03T18:14:39.762Z,100545.37
2018-10-03T18:17:07.531Z,100556.09
2018-10-03T18:19:35.334Z,100552.42
2018-10-03T18:22:03.014Z,100545.34
2018-10-03T18:24:30.526Z,100552.85
2018-10-03T18:26:58.197Z,100553.88
2018-10-03T18:29:25.737Z,100556.27
2018-10-03T18:31:53.262Z,100558.67
2018-10-03T18:34:21.125Z,100555.30
2018-10-03T18:36:48.821Z,100560.10
2018-10-03T18:39:16.430Z,100558.99
2018-10-03T18:41:43.951Z,100551.63
2018-10-03T18:44:11.526Z,100555.12
2018-10-03T18:46:39.129Z,100554.77
2018-10-03T18:49:06.635Z,100556.19
2018-10-03T18:51:34.221Z,100554.93
2018-10-03T18:54:01.836Z,100568.61
2018-10-03T18:56:29.418Z,100567.34
2018-10-03T18:58:56.946Z,100562.56
2018-10-03T19:01:24.487Z,100558.83
2018-10-03T19:03:52.077Z,100566.49
2018-10-03T19:06:19.797Z,100567.36
2018-10-03T19:08:47.403Z,100567.33
2018-10-03T19:11:14.987Z,100577.98
2018-10-03T19:13:42.525Z,100573.36
2018-10-03T19:16:10.122Z,100569.51
2018-10-03T19:18:37.658Z,100572.79
2018-10-03T19:21:05.181Z,100564.70
2018-10-03T19:23:32.949Z,100565.24
2018-10-03T19:26:00.540Z,100570.61
2018-10-03T19:28:28.171Z,100565.85
2018-10-03T19:30:55.758Z,100571.94
2018-10-03T19:33:23.399Z,100576.81
2018-10-03T19:35:51.233Z,100580.42
2018-10-03T19:38:18.734Z,100576.50
2018-10-03T19:40:46.373Z,100577.11
2018-10-03T19:43:14.086Z,100575.11
2018-10-03T19:45:41.767Z,100580.39
2018-10-03T19:48:09.416Z,100577.16
2018-10-03T19:50:36.911Z,100580.52
2018-10-03T19:53:04.463Z,100581.56
2018-10-03T19:55:32.005Z,100573.31
2018-10-03T19:57:59.572Z,100582.66
2018-10-03T20:00:27.130Z,100585.66
2018-10-03T20:02:54.683Z,100585.11
2018-10-03T20:05:22.274Z,100579.11
2018-10-03T20:07:49.841Z,100579.91
2018-10-03T20:10:17.393Z,100577.16
2018-10-03T20:12:44.996Z,100576.95
2018-10-03T20:15:12.624Z,100579.79
2018-10-03T20:17:40.221Z,100575.25
2018-10-03T20:20:07.812Z,100574.52
2018-10-03T20:22:35.350Z,100576.34
2018-10-03T20:25:02.963Z,100576.34
2018-10-03T20:27:30.635Z,100572.00
2018-10-03T20:29:58.143Z,100573.91
2018-10-03T20:32:25.678Z,100572.34
2018-10-03T20:34:53.281Z,100578.36
2018-10-03T20:37:20.971Z,100586.30
2018-10-03T20:39:48.535Z,100588.73
2018-10-03T20:42:17.345Z,100589.42
2018-10-03T20:44:44.880Z,100596.20
2018-10-03T20:47:12.534Z,100590.72
2018-10-03T20:49:40.077Z,100592.44
2018-10-03T20:52:07.636Z,100594.05
2018-10-03T20:54:35.251Z,100590.75
2018-10-03T20:57:02.820Z,100581.12
2018-10-03T20:59:30.430Z,100593.47
2018-10-03T21:01:57.973Z,100592.97
2018-10-03T21:04:25.584Z,100595.77
2018-10-03T21:06:56.438Z,100602.27
2018-10-03T21:09:24.224Z,100594.21
2018-10-03T21:11:51.798Z,100594.08
2018-10-03T21:14:19.441Z,100596.06
2018-10-03T21:16:47.022Z,100593.47
2018-10-03T21:19:14.764Z,100596.67
2018-10-03T21:21:42.341Z,100592.05
2018-10-03T21:24:10.149Z,100592.86
2018-10-03T21:26:38.012Z,100598.06
2018-10-03T21:29:05.615Z,100597.45
2018-10-03T21:31:33.395Z,100603.52
2018-10-03T21:34:00.993Z,100605.23
2018-10-03T21:36:28.582Z,100613.52
2018-10-03T21:38:56.307Z,100606.49
2018-10-03T21:41:24.048Z,100604.33
2018-10-03T21:43:51.744Z,100607.58
2018-10-03T21:46:19.387Z,100605.91
2018-10-03T21:48:46.964Z,100612.47
2018-10-03T21:51:14.547Z,100605.16
2018-10-03T21:53:42.110Z,100607.69
2018-10-03T21:56:09.669Z,100602.13
2018-10-03T21:58:37.308Z,100609.68
2018-10-03T22:01:05.018Z,100602.44
2018-10-03T22:03:32.588Z,100606.55
2018-10-03T22:06:00.159Z,100606.28
2018-10-03T22:08:27.724Z,100612.63
2018-10-03T22:10:55.477Z,100612.47
2018-10-03T22:13:23.067Z,100616.50
2018-10-03T22:15:50.581Z,100602.56
2018-10-03T22:18:18.216Z,100604.14
2018-10-03T22:20:47.135Z,100609.00
2018-10-03T22:23:14.718Z,100607.45
2018-10-03T22:25:42.391Z,100611.44
2018-10-03T22:28:09.944Z,100612.78
2018-10-03T22:30:37.845Z,100609.69
2018-10-03T22:33:05.446Z,100616.70
2018-10-03T22:35:33.339Z,100615.44
2018-10-03T22:38:00.964Z,100617.80
2018-10-03T22:40:28.889Z,100614.78
2018-10-03T22:42:56.489Z,100608.27
2018-10-03T22:45:24.839Z,100612.55
2018-10-03T22:47:52.532Z,100611.67
2018-10-03T22:50:20.964Z,100614.93
2018-10-03T22:52:48.803Z,100612.83
2018-10-03T22:55:16.410Z,100606.27
2018-10-03T22:57:44.084Z,100610.64
2018-10-03T23:00:11.853Z,100613.94
2018-10-03T23:02:39.639Z,100607.08
2018-10-03T23:05:07.212Z,100612.81
2018-10-03T23:07:34.777Z,100610.77
2018-10-03T23:10:02.345Z,100612.48
2018-10-03T23:12:29.885Z,100611.22
2018-10-03T23:14:57.476Z,100616.59
2018-10-03T23:17:25.041Z,100610.50
2018-10-03T23:19:52.578Z,100607.50
2018-10-03T23:22:21.059Z,100611.35
2018-10-03T23:24:48.620Z,100613.41
2018-10-03T23:27:16.273Z,100617.24
2018-10-03T23:29:43.866Z,100617.45
2018-10-03T23:32:11.404Z,100626.04
2018-10-03T23:34:39.007Z,100612.31
2018-10-03T23:37:06.537Z,100619.62
2018-10-03T23:39:34.116Z,100622.67
2018-10-03T23:42:01.829Z,100630.21
2018-10-03T23:44:29.327Z,100625.50
2018-10-03T23:46:56.928Z,100619.28
2018-10-03T23:49:24.592Z,100628.36
2018-10-03T23:51:52.158Z,100626.56
2018-10-03T23:54:19.718Z,100624.92
2018-10-03T23:56:47.286Z,100629.79
2018-10-03T23:59:14.836Z,100631.53
